sensor_id;sensor_type;location;lat;lon;timestamp;pressure;altitude;pressure_sealevel;temperature;humidity
64841;BME280;51307;52.162;7.560;2023-02-10T00:01:08;102928.56;;;3.82;63.61
64841;BME280;51307;52.162;7.560;2023-02-10T00:03:34;102928.59;;;3.80;63.52
64841;BME280;51307;52.162;7.560;2023-02-10T00:06:00;102926.81;;;3.81;64.21
64841;BME280;51307;52.162;7.560;2023-02-10T00:08:27;102925.16;;;3.34;65.44
64841;BME280;51307;52.162;7.560;2023-02-10T00:10:59;102926.97;;;3.78;64.04
64841;BME280;51307;52.162;7.560;2023-02-10T00:13:26;102923.53;;;3.53;64.60
64841;BME280;51307;52.162;7.560;2023-02-10T00:15:52;102934.69;;;3.60;64.50
64841;BME280;51307;52.162;7.560;2023-02-10T00:18:17;102931.56;;;3.72;63.81
64841;BME280;51307;52.162;7.560;2023-02-10T00:20:43;102932.00;;;3.62;64.05
64841;BME280;51307;52.162;7.560;2023-02-10T00:23:09;102940.13;;;3.57;63.94
64841;BME280;51307;52.162;7.560;2023-02-10T00:25:35;102940.00;;;3.60;63.85
64841;BME280;51307;52.162;7.560;2023-02-10T00:28:01;102940.25;;;3.54;64.09
64841;BME280;51307;52.162;7.560;2023-02-10T00:30:27;102943.03;;;3.51;64.40
64841;BME280;51307;52.162;7.560;2023-02-10T00:32:53;102935.34;;;3.45;64.24
64841;BME280;51307;52.162;7.560;2023-02-10T00:35:18;102941.25;;;3.29;64.87
64841;BME280;51307;52.162;7.560;2023-02-10T00:37:44;102938.91;;;3.44;64.23
64841;BME280;51307;52.162;7.560;2023-02-10T00:40:10;102934.03;;;3.33;64.41
64841;BME280;51307;52.162;7.560;2023-02-10T00:42:35;102941.97;;;3.33;64.53
64841;BME280;51307;52.162;7.560;2023-02-10T00:45:01;102937.41;;;3.36;64.60
64841;BME280;51307;52.162;7.560;2023-02-10T00:47:26;102950.31;;;3.22;65.10
64841;BME280;51307;52.162;7.560;2023-02-10T00:49:52;102946.47;;;3.07;65.28
64841;BME280;51307;52.162;7.560;2023-02-10T00:52:18;102949.91;;;3.33;64.57
64841;BME280;51307;52.162;7.560;2023-02-10T00:54:44;102946.06;;;3.18;64.47
64841;BME280;51307;52.162;7.560;2023-02-10T00:57:09;102950.94;;;3.07;65.11
64841;BME280;51307;52.162;7.560;2023-02-10T00:59:35;102958.09;;;3.49;63.82
64841;BME280;51307;52.162;7.560;2023-02-10T01:02:00;102955.59;;;3.46;63.68
64841;BME280;51307;52.162;7.560;2023-02-10T01:04:26;102961.03;;;3.19;63.87
64841;BME280;51307;52.162;7.560;2023-02-10T01:06:52;102962.75;;;2.96;63.95
64841;BME280;51307;52.162;7.560;2023-02-10T01:09:17;102963.63;;;3.20;63.17
64841;BME280;51307;52.162;7.560;2023-02-10T01:11:43;102964.00;;;3.33;62.83
64841;BME280;51307;52.162;7.560;2023-02-10T01:14:09;102964.59;;;2.94;63.02
64841;BME280;51307;52.162;7.560;2023-02-10T01:16:35;102959.66;;;2.85;62.84
64841;BME280;51307;52.162;7.560;2023-02-10T01:19:01;102964.25;;;2.80;62.31
64841;BME280;51307;52.162;7.560;2023-02-10T01:21:30;102965.47;;;2.95;62.41
64841;BME280;51307;52.162;7.560;2023-02-10T01:23:56;102970.91;;;3.14;63.00
64841;BME280;51307;52.162;7.560;2023-02-10T01:26:21;102967.13;;;2.97;63.06
64841;BME280;51307;52.162;7.560;2023-02-10T01:28:47;102980.81;;;2.85;62.98
64841;BME280;51307;52.162;7.560;2023-02-10T01:31:18;102975.75;;;3.02;62.81
64841;BME280;51307;52.162;7.560;2023-02-10T01:33:45;102979.88;;;2.86;62.45
64841;BME280;51307;52.162;7.560;2023-02-10T01:36:14;102979.06;;;3.08;62.61
64841;BME280;51307;52.162;7.560;2023-02-10T01:38:40;102977.22;;;2.62;62.68
64841;BME280;51307;52.162;7.560;2023-02-10T01:41:06;102978.56;;;2.74;62.63
64841;BME280;51307;52.162;7.560;2023-02-10T01:43:32;102971.06;;;2.62;62.54
64841;BME280;51307;52.162;7.560;2023-02-10T01:45:58;102968.59;;;2.57;62.65
64841;BME280;51307;52.162;7.560;2023-02-10T01:48:25;102969.75;;;2.48;62.42
64841;BME280;51307;52.162;7.560;2023-02-10T01:51:01;102966.84;;;2.81;62.37
64841;BME280;51307;52.162;7.560;2023-02-10T01:53:29;102958.84;;;2.83;61.98
64841;BME280;51307;52.162;7.560;2023-02-10T01:55:57;102959.34;;;2.69;62.46
64841;BME280;51307;52.162;7.560;2023-02-10T01:58:30;102958.38;;;2.72;62.66
64841;BME280;51307;52.162;7.560;2023-02-10T02:00:58;102968.78;;;2.76;62.62
64841;BME280;51307;52.162;7.560;2023-02-10T02:03:24;102968.19;;;2.68;62.92
64841;BME280;51307;52.162;7.560;2023-02-10T02:05:49;102961.94;;;2.70;63.02
64841;BME280;51307;52.162;7.560;2023-02-10T02:08:20;102972.56;;;2.69;63.29
64841;BME280;51307;52.162;7.560;2023-02-10T02:21:36;102976.63;;;2.54;65.19
64841;BME280;51307;52.162;7.560;2023-02-10T02:33:01;102980.22;;;2.26;65.95
64841;BME280;51307;52.162;7.560;2023-02-10T02:35:40;102983.09;;;2.45;65.69
64841;BME280;51307;52.162;7.560;2023-02-10T02:38:09;102978.34;;;2.30;66.40
64841;BME280;51307;52.162;7.560;2023-02-10T02:40:35;102975.75;;;2.53;65.53
64841;BME280;51307;52.162;7.560;2023-02-10T02:43:01;102974.31;;;2.45;65.91
64841;BME280;51307;52.162;7.560;2023-02-10T02:46:04;102972.91;;;2.60;65.73
64841;BME280;51307;52.162;7.560;2023-02-10T02:48:41;102974.91;;;2.53;65.47
64841;BME280;51307;52.162;7.560;2023-02-10T02:51:21;102982.66;;;2.58;65.34
64841;BME280;51307;52.162;7.560;2023-02-10T02:59:40;102969.63;;;2.53;65.37
64841;BME280;51307;52.162;7.560;2023-02-10T03:02:12;102975.16;;;2.45;65.47
64841;BME280;51307;52.162;7.560;2023-02-10T03:04:39;102977.91;;;2.67;65.10
64841;BME280;51307;52.162;7.560;2023-02-10T03:07:05;102980.66;;;2.64;64.91
64841;BME280;51307;52.162;7.560;2023-02-10T03:09:32;102973.44;;;2.19;66.14
64841;BME280;51307;52.162;7.560;2023-02-10T03:11:59;102976.13;;;2.43;65.36
64841;BME280;51307;52.162;7.560;2023-02-10T03:14:24;102967.69;;;2.58;65.27
64841;BME280;51307;52.162;7.560;2023-02-10T03:16:50;102966.41;;;2.18;66.29
64841;BME280;51307;52.162;7.560;2023-02-10T03:19:16;102971.53;;;2.23;65.93
64841;BME280;51307;52.162;7.560;2023-02-10T03:21:41;102972.97;;;2.58;65.12
64841;BME280;51307;52.162;7.560;2023-02-10T03:24:07;102966.75;;;2.34;65.80
64841;BME280;51307;52.162;7.560;2023-02-10T03:26:35;102960.66;;;2.32;65.24
64841;BME280;51307;52.162;7.560;2023-02-10T03:29:02;102969.78;;;2.23;65.86
64841;BME280;51307;52.162;7.560;2023-02-10T03:31:28;102968.56;;;2.32;65.32
64841;BME280;51307;52.162;7.560;2023-02-10T03:33:53;102971.16;;;2.33;65.42
64841;BME280;51307;52.162;7.560;2023-02-10T03:36:19;102973.75;;;2.35;65.41
64841;BME280;51307;52.162;7.560;2023-02-10T03:38:44;102974.94;;;2.26;65.66
64841;BME280;51307;52.162;7.560;2023-02-10T03:41:11;102971.28;;;2.30;65.94
64841;BME280;51307;52.162;7.560;2023-02-10T03:43:37;102968.53;;;2.33;65.54
64841;BME280;51307;52.162;7.560;2023-02-10T03:46:03;102969.47;;;2.32;65.38
64841;BME280;51307;52.162;7.560;2023-02-10T03:48:30;102965.94;;;2.32;65.65
64841;BME280;51307;52.162;7.560;2023-02-10T03:51:01;102962.63;;;2.25;66.13
64841;BME280;51307;52.162;7.560;2023-02-10T03:53:28;102965.94;;;2.32;65.66
64841;BME280;51307;52.162;7.560;2023-02-10T03:55:54;102968.56;;;2.32;65.54
64841;BME280;51307;52.162;7.560;2023-02-10T03:58:21;102968.47;;;2.10;66.06
64841;BME280;51307;52.162;7.560;2023-02-10T04:00:47;102976.06;;;2.44;65.55
64841;BME280;51307;52.162;7.560;2023-02-10T04:03:13;102990.53;;;2.34;65.72
64841;BME280;51307;52.162;7.560;2023-02-10T04:05:38;102975.91;;;1.97;66.74
64841;BME280;51307;52.162;7.560;2023-02-10T04:08:04;102973.03;;;2.05;66.47
64841;BME280;51307;52.162;7.560;2023-02-10T04:10:30;102976.34;;;2.36;65.78
64841;BME280;51307;52.162;7.560;2023-02-10T04:12:55;102982.56;;;2.09;66.30
64841;BME280;51307;52.162;7.560;2023-02-10T04:15:21;102976.56;;;2.03;66.36
64841;BME280;51307;52.162;7.560;2023-02-10T04:17:46;102983.13;;;1.92;66.68
64841;BME280;51307;52.162;7.560;2023-02-10T04:20:13;102986.13;;;2.08;66.49
64841;BME280;51307;52.162;7.560;2023-02-10T04:22:38;102987.25;;;2.27;65.82
64841;BME280;51307;52.162;7.560;2023-02-10T04:25:05;102981.44;;;2.16;65.56
64841;BME280;51307;52.162;7.560;2023-02-10T04:27:31;102986.41;;;2.25;65.86
64841;BME280;51307;52.162;7.560;2023-02-10T04:29:56;102980.06;;;2.04;66.36
64841;BME280;51307;52.162;7.560;2023-02-10T04:32:22;102993.88;;;2.39;65.37
64841;BME280;51307;52.162;7.560;2023-02-10T04:34:47;102980.84;;;2.08;66.00
64841;BME280;51307;52.162;7.560;2023-02-10T04:37:13;102994.44;;;2.22;65.92
64841;BME280;51307;52.162;7.560;2023-02-10T04:39:39;102992.59;;;2.24;65.23
64841;BME280;51307;52.162;7.560;2023-02-10T04:42:04;102989.00;;;2.27;65.47
64841;BME280;51307;52.162;7.560;2023-02-10T04:44:29;102994.34;;;2.25;65.15
64841;BME280;51307;52.162;7.560;2023-02-10T04:46:55;102990.06;;;2.21;65.22
64841;BME280;51307;52.162;7.560;2023-02-10T04:49:20;102992.22;;;2.10;66.24
64841;BME280;51307;52.162;7.560;2023-02-10T04:51:46;102990.31;;;2.15;65.75
64841;BME280;51307;52.162;7.560;2023-02-10T04:54:11;102995.91;;;1.77;66.63
64841;BME280;51307;52.162;7.560;2023-02-10T04:56:37;102990.44;;;2.10;65.91
64841;BME280;51307;52.162;7.560;2023-02-10T04:59:03;102994.22;;;2.03;66.03
64841;BME280;51307;52.162;7.560;2023-02-10T05:01:28;102990.38;;;1.85;66.74
64841;BME280;51307;52.162;7.560;2023-02-10T05:03:53;102989.66;;;1.51;68.16
64841;BME280;51307;52.162;7.560;2023-02-10T05:06:19;102988.34;;;1.93;67.25
64841;BME280;51307;52.162;7.560;2023-02-10T05:08:44;103001.59;;;1.63;68.10
64841;BME280;51307;52.162;7.560;2023-02-10T05:11:12;103005.53;;;1.78;67.79
64841;BME280;51307;52.162;7.560;2023-02-10T05:13:39;103012.97;;;1.94;67.47
64841;BME280;51307;52.162;7.560;2023-02-10T05:16:06;103018.78;;;1.77;68.45
64841;BME280;51307;52.162;7.560;2023-02-10T05:18:33;103020.09;;;1.63;69.24
64841;BME280;51307;52.162;7.560;2023-02-10T05:20:59;103023.09;;;1.51;69.54
64841;BME280;51307;52.162;7.560;2023-02-10T05:23:27;103028.63;;;1.72;68.39
64841;BME280;51307;52.162;7.560;2023-02-10T05:25:53;103033.44;;;1.87;68.70
64841;BME280;51307;52.162;7.560;2023-02-10T05:28:18;103026.47;;;1.56;69.25
64841;BME280;51307;52.162;7.560;2023-02-10T05:30:44;103021.44;;;1.77;68.93
64841;BME280;51307;52.162;7.560;2023-02-10T05:33:10;103019.94;;;1.96;68.38
64841;BME280;51307;52.162;7.560;2023-02-10T05:35:36;103015.63;;;1.94;68.31
64841;BME280;51307;52.162;7.560;2023-02-10T05:38:01;103015.69;;;1.92;68.36
64841;BME280;51307;52.162;7.560;2023-02-10T05:40:28;103026.78;;;1.45;69.47
64841;BME280;51307;52.162;7.560;2023-02-10T05:42:54;103016.69;;;1.88;69.03
64841;BME280;51307;52.162;7.560;2023-02-10T05:45:20;103018.06;;;1.72;68.88
64841;BME280;51307;52.162;7.560;2023-02-10T05:47:46;103023.94;;;1.81;69.01
64841;BME280;51307;52.162;7.560;2023-02-10T05:50:12;103028.28;;;1.82;69.22
64841;BME280;51307;52.162;7.560;2023-02-10T05:52:39;103021.56;;;2.00;68.42
64841;BME280;51307;52.162;7.560;2023-02-10T05:55:05;103031.09;;;1.78;68.44
64841;BME280;51307;52.162;7.560;2023-02-10T05:57:30;103033.94;;;1.70;69.45
64841;BME280;51307;52.162;7.560;2023-02-10T05:59:56;103039.06;;;1.76;69.54
64841;BME280;51307;52.162;7.560;2023-02-10T06:02:21;103045.91;;;1.82;68.97
64841;BME280;51307;52.162;7.560;2023-02-10T06:04:47;103042.47;;;1.80;68.96
64841;BME280;51307;52.162;7.560;2023-02-10T06:07:12;103053.06;;;1.78;69.15
64841;BME280;51307;52.162;7.560;2023-02-10T06:09:38;103057.53;;;1.76;69.46
64841;BME280;51307;52.162;7.560;2023-02-10T06:12:05;103057.13;;;1.60;69.93
64841;BME280;51307;52.162;7.560;2023-02-10T06:14:31;103051.25;;;1.80;69.27
64841;BME280;51307;52.162;7.560;2023-02-10T06:16:57;103050.50;;;2.03;68.63
64841;BME280;51307;52.162;7.560;2023-02-10T06:19:22;103053.59;;;1.90;69.23
64841;BME280;51307;52.162;7.560;2023-02-10T06:21:48;103045.63;;;1.91;68.98
64841;BME280;51307;52.162;7.560;2023-02-10T06:24:14;103059.88;;;2.14;68.52
64841;BME280;51307;52.162;7.560;2023-02-10T06:26:40;103061.41;;;1.93;68.88
64841;BME280;51307;52.162;7.560;2023-02-10T06:29:05;103056.13;;;1.93;69.42
64841;BME280;51307;52.162;7.560;2023-02-10T06:31:31;103055.97;;;1.99;69.05
64841;BME280;51307;52.162;7.560;2023-02-10T06:33:57;103051.69;;;1.95;69.14
64841;BME280;51307;52.162;7.560;2023-02-10T06:36:22;103048.69;;;2.06;68.84
64841;BME280;51307;52.162;7.560;2023-02-10T06:38:48;103044.28;;;2.06;68.59
64841;BME280;51307;52.162;7.560;2023-02-10T06:41:13;103053.63;;;2.16;68.54
64841;BME280;51307;52.162;7.560;2023-02-10T06:43:39;103053.53;;;2.19;68.83
64841;BME280;51307;52.162;7.560;2023-02-10T06:46:05;103053.41;;;2.23;68.48
64841;BME280;51307;52.162;7.560;2023-02-10T06:48:31;103054.94;;;2.03;69.34
64841;BME280;51307;52.162;7.560;2023-02-10T06:50:56;103059.63;;;2.22;68.41
64841;BME280;51307;52.162;7.560;2023-02-10T06:53:22;103052.50;;;2.24;68.53
64841;BME280;51307;52.162;7.560;2023-02-10T06:55:47;103050.34;;;2.36;68.07
64841;BME280;51307;52.162;7.560;2023-02-10T06:58:15;103052.44;;;2.25;68.76
64841;BME280;51307;52.162;7.560;2023-02-10T07:00:40;103052.00;;;2.12;68.86
64841;BME280;51307;52.162;7.560;2023-02-10T07:03:06;103057.19;;;2.15;69.01
64841;BME280;51307;52.162;7.560;2023-02-10T07:05:31;103054.97;;;2.30;68.34
64841;BME280;51307;52.162;7.560;2023-02-10T07:07:57;103056.31;;;2.42;68.25
64841;BME280;51307;52.162;7.560;2023-02-10T07:10:25;103060.31;;;2.53;67.56
64841;BME280;51307;52.162;7.560;2023-02-10T07:12:50;103068.06;;;2.33;68.11
64841;BME280;51307;52.162;7.560;2023-02-10T07:15:17;103064.22;;;2.42;67.82
64841;BME280;51307;52.162;7.560;2023-02-10T07:17:44;103073.47;;;2.28;68.35
64841;BME280;51307;52.162;7.560;2023-02-10T07:20:10;103071.19;;;2.44;68.01
64841;BME280;51307;52.162;7.560;2023-02-10T07:22:37;103069.69;;;2.37;68.10
64841;BME280;51307;52.162;7.560;2023-02-10T07:25:02;103075.31;;;2.26;68.30
64841;BME280;51307;52.162;7.560;2023-02-10T07:27:28;103066.44;;;2.56;67.63
64841;BME280;51307;52.162;7.560;2023-02-10T07:29:53;103062.59;;;2.64;67.19
64841;BME280;51307;52.162;7.560;2023-02-10T07:32:19;103074.53;;;2.76;66.83
64841;BME280;51307;52.162;7.560;2023-02-10T07:34:44;103074.41;;;2.79;66.71
64841;BME280;51307;52.162;7.560;2023-02-10T07:37:11;103074.22;;;2.85;66.18
64841;BME280;51307;52.162;7.560;2023-02-10T07:39:37;103083.00;;;2.61;66.69
64841;BME280;51307;52.162;7.560;2023-02-10T07:42:02;103080.38;;;2.59;67.46
64841;BME280;51307;52.162;7.560;2023-02-10T07:44:28;103083.38;;;2.75;66.43
64841;BME280;51307;52.162;7.560;2023-02-10T07:46:53;103091.22;;;2.78;66.41
64841;BME280;51307;52.162;7.560;2023-02-10T07:49:19;103082.09;;;2.87;66.01
64841;BME280;51307;52.162;7.560;2023-02-10T07:51:45;103087.56;;;2.56;66.86
64841;BME280;51307;52.162;7.560;2023-02-10T07:54:11;103083.28;;;2.78;66.16
64841;BME280;51307;52.162;7.560;2023-02-10T07:56:36;103092.31;;;2.71;66.34
64841;BME280;51307;52.162;7.560;2023-02-10T07:59:02;103085.41;;;2.67;66.54
64841;BME280;51307;52.162;7.560;2023-02-10T08:01:28;103089.22;;;2.85;65.81
64841;BME280;51307;52.162;7.560;2023-02-10T08:03:53;103091.25;;;2.77;66.14
64841;BME280;51307;52.162;7.560;2023-02-10T08:06:20;103098.22;;;2.79;65.84
64841;BME280;51307;52.162;7.560;2023-02-10T08:08:47;103095.03;;;2.69;66.06
64841;BME280;51307;52.162;7.560;2023-02-10T08:11:12;103091.50;;;2.96;65.68
64841;BME280;51307;52.162;7.560;2023-02-10T08:13:38;103095.53;;;2.81;65.84
64841;BME280;51307;52.162;7.560;2023-02-10T08:16:07;103104.16;;;2.59;66.38
64841;BME280;51307;52.162;7.560;2023-02-10T08:18:34;103100.91;;;2.78;66.07
64841;BME280;51307;52.162;7.560;2023-02-10T08:21:00;103106.16;;;2.79;65.76
64841;BME280;51307;52.162;7.560;2023-02-10T08:23:26;103104.38;;;2.80;66.04
64841;BME280;51307;52.162;7.560;2023-02-10T08:25:51;103102.66;;;2.79;66.17
64841;BME280;51307;52.162;7.560;2023-02-10T08:28:18;103104.38;;;2.80;66.40
64841;BME280;51307;52.162;7.560;2023-02-10T08:30:43;103112.63;;;2.70;66.49
64841;BME280;51307;52.162;7.560;2023-02-10T08:33:09;103100.59;;;2.87;66.46
64841;BME280;51307;52.162;7.560;2023-02-10T08:35:36;103109.97;;;2.70;66.92
64841;BME280;51307;52.162;7.560;2023-02-10T08:38:03;103108.25;;;2.69;66.98
64841;BME280;51307;52.162;7.560;2023-02-10T08:40:29;103110.75;;;2.74;66.83
64841;BME280;51307;52.162;7.560;2023-02-10T08:42:55;103112.31;;;2.80;66.65
64841;BME280;51307;52.162;7.560;2023-02-10T08:45:20;103113.28;;;2.77;67.16
64841;BME280;51307;52.162;7.560;2023-02-10T08:47:47;103118.53;;;2.52;67.67
64841;BME280;51307;52.162;7.560;2023-02-10T08:50:12;103123.44;;;2.90;66.76
64841;BME280;51307;52.162;7.560;2023-02-10T08:52:38;103122.84;;;2.81;66.89
64841;BME280;51307;52.162;7.560;2023-02-10T08:55:03;103135.44;;;2.73;67.02
64841;BME280;51307;52.162;7.560;2023-02-10T08:57:29;103133.03;;;2.92;66.71
64841;BME280;51307;52.162;7.560;2023-02-10T08:59:55;103132.13;;;3.18;65.96
64841;BME280;51307;52.162;7.560;2023-02-10T09:02:20;103138.00;;;3.01;66.58
64841;BME280;51307;52.162;7.560;2023-02-10T09:04:46;103127.09;;;2.85;66.97
64841;BME280;51307;52.162;7.560;2023-02-10T09:07:11;103132.94;;;2.95;66.47
64841;BME280;51307;52.162;7.560;2023-02-10T09:09:41;103134.44;;;2.77;67.15
64841;BME280;51307;52.162;7.560;2023-02-10T09:12:08;103132.97;;;2.94;66.33
64841;BME280;51307;52.162;7.560;2023-02-10T09:14:37;103145.06;;;2.76;66.91
64841;BME280;51307;52.162;7.560;2023-02-10T09:17:04;103131.41;;;2.88;66.44
64841;BME280;51307;52.162;7.560;2023-02-10T09:19:29;103138.88;;;3.02;65.63
64841;BME280;51307;52.162;7.560;2023-02-10T09:21:55;103134.59;;;2.98;65.45
64841;BME280;51307;52.162;7.560;2023-02-10T09:24:22;103136.94;;;3.07;65.42
64841;BME280;51307;52.162;7.560;2023-02-10T09:26:48;103136.28;;;3.00;65.29
64841;BME280;51307;52.162;7.560;2023-02-10T09:29:14;103134.41;;;3.04;65.19
64841;BME280;51307;52.162;7.560;2023-02-10T09:31:39;103129.25;;;2.99;65.16
64841;BME280;51307;52.162;7.560;2023-02-10T09:34:05;103133.38;;;3.08;65.08
64841;BME280;51307;52.162;7.560;2023-02-10T09:36:30;103123.75;;;3.06;64.97
64841;BME280;51307;52.162;7.560;2023-02-10T09:38:56;103125.69;;;3.00;65.05
64841;BME280;51307;52.162;7.560;2023-02-10T09:55:16;103140.53;;;3.04;65.75
64841;BME280;51307;52.162;7.560;2023-02-10T09:57:48;103139.56;;;3.07;65.76
64841;BME280;51307;52.162;7.560;2023-02-10T10:00:30;103146.97;;;2.97;66.20
64841;BME280;51307;52.162;7.560;2023-02-10T10:02:58;103145.03;;;3.02;66.04
64841;BME280;51307;52.162;7.560;2023-02-10T10:11:25;103158.31;;;3.26;65.85
64841;BME280;51307;52.162;7.560;2023-02-10T10:13:54;103156.69;;;3.22;65.86
64841;BME280;51307;52.162;7.560;2023-02-10T10:19:48;103147.94;;;3.69;65.04
64841;BME280;51307;52.162;7.560;2023-02-10T10:22:38;103149.91;;;3.40;65.50
64841;BME280;51307;52.162;7.560;2023-02-10T10:28:12;103144.47;;;3.43;65.24
64841;BME280;51307;52.162;7.560;2023-02-10T10:30:58;103151.72;;;3.85;64.40
64841;BME280;51307;52.162;7.560;2023-02-10T10:33:30;103149.66;;;3.94;63.94
64841;BME280;51307;52.162;7.560;2023-02-10T10:35:59;103155.94;;;3.91;64.17
64841;BME280;51307;52.162;7.560;2023-02-10T10:38:36;103143.44;;;3.95;63.97
64841;BME280;51307;52.162;7.560;2023-02-10T10:41:10;103143.63;;;3.90;63.70
64841;BME280;51307;52.162;7.560;2023-02-10T10:43:45;103138.69;;;4.03;63.60
64841;BME280;51307;52.162;7.560;2023-02-10T10:46:34;103146.84;;;3.98;63.78
64841;BME280;51307;52.162;7.560;2023-02-10T10:49:03;103131.81;;;3.99;63.55
64841;BME280;51307;52.162;7.560;2023-02-10T10:51:30;103139.69;;;4.00;63.70
64841;BME280;51307;52.162;7.560;2023-02-10T10:53:58;103126.28;;;4.05;63.18
64841;BME280;51307;52.162;7.560;2023-02-10T10:58:56;103121.72;;;4.31;62.86
64841;BME280;51307;52.162;7.560;2023-02-10T11:01:51;103123.31;;;4.35;62.79
64841;BME280;51307;52.162;7.560;2023-02-10T11:04:23;103118.63;;;4.42;62.65
64841;BME280;51307;52.162;7.560;2023-02-10T11:06:53;103113.84;;;4.51;62.74
64841;BME280;51307;52.162;7.560;2023-02-10T11:11:49;103111.53;;;4.42;62.79
64841;BME280;51307;52.162;7.560;2023-02-10T11:14:20;103099.44;;;4.57;62.41
64841;BME280;51307;52.162;7.560;2023-02-10T11:16:51;103101.72;;;4.66;62.26
64841;BME280;51307;52.162;7.560;2023-02-10T11:19:33;103092.38;;;4.58;62.07
64841;BME280;51307;52.162;7.560;2023-02-10T11:22:00;103101.94;;;4.82;61.69
64841;BME280;51307;52.162;7.560;2023-02-10T11:24:29;103092.72;;;4.91;61.52
64841;BME280;51307;52.162;7.560;2023-02-10T11:27:12;103099.28;;;5.03;61.37
64841;BME280;51307;52.162;7.560;2023-02-10T11:29:55;103093.84;;;5.06;61.30
64841;BME280;51307;52.162;7.560;2023-02-10T11:32:28;103086.75;;;4.86;60.59
64841;BME280;51307;52.162;7.560;2023-02-10T11:34:58;103085.47;;;5.15;60.28
64841;BME280;51307;52.162;7.560;2023-02-10T11:37:28;103080.16;;;5.15;60.12
64841;BME280;51307;52.162;7.560;2023-02-10T11:39:58;103076.19;;;5.05;60.20
64841;BME280;51307;52.162;7.560;2023-02-10T11:42:33;103079.81;;;5.23;60.10
64841;BME280;51307;52.162;7.560;2023-02-10T11:45:17;103075.84;;;5.13;60.15
64841;BME280;51307;52.162;7.560;2023-02-10T11:47:43;103072.38;;;5.31;59.62
64841;BME280;51307;52.162;7.560;2023-02-10T11:52:45;103070.91;;;5.24;59.76
64841;BME280;51307;52.162;7.560;2023-02-10T11:55:15;103068.50;;;5.38;59.32
64841;BME280;51307;52.162;7.560;2023-02-10T11:58:44;103062.47;;;5.35;58.77
64841;BME280;51307;52.162;7.560;2023-02-10T12:01:09;103048.75;;;5.25;58.77
64841;BME280;51307;52.162;7.560;2023-02-10T12:06:24;103046.09;;;5.44;57.87
64841;BME280;51307;52.162;7.560;2023-02-10T12:12:00;103044.44;;;5.61;57.58
64841;BME280;51307;52.162;7.560;2023-02-10T12:17:37;103045.19;;;5.64;56.75
64841;BME280;51307;52.162;7.560;2023-02-10T12:30:57;103039.75;;;5.85;55.17
64841;BME280;51307;52.162;7.560;2023-02-10T12:41:21;103022.84;;;6.05;55.21
64841;BME280;51307;52.162;7.560;2023-02-10T12:44:19;103022.63;;;6.10;54.45
64841;BME280;51307;52.162;7.560;2023-02-10T12:52:06;103031.25;;;6.15;54.08
64841;BME280;51307;52.162;7.560;2023-02-10T12:54:50;103013.50;;;6.33;53.67
64841;BME280;51307;52.162;7.560;2023-02-10T12:57:36;103013.31;;;6.36;53.12
64841;BME280;51307;52.162;7.560;2023-02-10T13:02:53;103019.44;;;6.38;53.23
64841;BME280;51307;52.162;7.560;2023-02-10T13:05:25;103023.88;;;6.20;52.89
64841;BME280;51307;52.162;7.560;2023-02-10T13:08:21;103015.97;;;6.36;52.41
64841;BME280;51307;52.162;7.560;2023-02-10T13:10:53;103017.53;;;6.05;52.66
64841;BME280;51307;52.162;7.560;2023-02-10T13:13:22;103017.16;;;6.13;52.50
64841;BME280;51307;52.162;7.560;2023-02-10T13:15:56;103001.38;;;6.45;52.37
64841;BME280;51307;52.162;7.560;2023-02-10T13:18:26;102998.91;;;6.57;52.29
64841;BME280;51307;52.162;7.560;2023-02-10T13:21:03;102993.78;;;6.37;52.53
64841;BME280;51307;52.162;7.560;2023-02-10T13:26:17;102987.81;;;6.67;52.17
64841;BME280;51307;52.162;7.560;2023-02-10T13:34:13;102984.59;;;6.60;51.56
64841;BME280;51307;52.162;7.560;2023-02-10T13:36:41;102971.97;;;6.81;51.08
64841;BME280;51307;52.162;7.560;2023-02-10T13:39:23;102982.56;;;6.65;51.64
64841;BME280;51307;52.162;7.560;2023-02-10T13:44:34;102963.72;;;6.86;51.09
64841;BME280;51307;52.162;7.560;2023-02-10T13:49:54;102968.44;;;6.47;52.09
64841;BME280;51307;52.162;7.560;2023-02-10T13:52:24;102960.34;;;6.66;51.47
64841;BME280;51307;52.162;7.560;2023-02-10T13:57:38;102965.28;;;6.90;50.84
64841;BME280;51307;52.162;7.560;2023-02-10T14:02:42;102973.91;;;6.95;50.16
64841;BME280;51307;52.162;7.560;2023-02-10T14:08:36;102955.75;;;6.70;50.25
64841;BME280;51307;52.162;7.560;2023-02-10T14:11:25;102959.13;;;6.89;49.84
64841;BME280;51307;52.162;7.560;2023-02-10T14:14:01;102963.31;;;6.94;50.02
64841;BME280;51307;52.162;7.560;2023-02-10T14:16:40;102953.56;;;6.61;50.73
64841;BME280;51307;52.162;7.560;2023-02-10T14:19:23;102952.22;;;6.52;50.85
64841;BME280;51307;52.162;7.560;2023-02-10T14:21:51;102945.38;;;6.81;50.91
64841;BME280;51307;52.162;7.560;2023-02-10T14:24:26;102945.25;;;7.00;50.78
64841;BME280;51307;52.162;7.560;2023-02-10T14:26:56;102952.25;;;6.85;50.35
64841;BME280;51307;52.162;7.560;2023-02-10T14:29:26;102946.22;;;6.82;49.95
64841;BME280;51307;52.162;7.560;2023-02-10T14:31:59;102932.31;;;6.93;49.83
64841;BME280;51307;52.162;7.560;2023-02-10T14:34:27;102930.19;;;6.83;49.97
64841;BME280;51307;52.162;7.560;2023-02-10T14:36:59;102929.19;;;7.18;49.56
64841;BME280;51307;52.162;7.560;2023-02-10T14:39:28;102933.75;;;7.00;49.27
64841;BME280;51307;52.162;7.560;2023-02-10T14:41:58;102924.06;;;7.15;49.00
64841;BME280;51307;52.162;7.560;2023-02-10T14:44:34;102922.63;;;7.25;48.91
64841;BME280;51307;52.162;7.560;2023-02-10T14:47:02;102938.66;;;7.23;49.32
64841;BME280;51307;52.162;7.560;2023-02-10T14:49:28;102926.22;;;7.40;49.03
64841;BME280;51307;52.162;7.560;2023-02-10T14:51:58;102924.84;;;7.01;48.71
64841;BME280;51307;52.162;7.560;2023-02-10T14:54:25;102920.50;;;7.46;48.15
64841;BME280;51307;52.162;7.560;2023-02-10T14:56:55;102922.22;;;7.94;47.24
64841;BME280;51307;52.162;7.560;2023-02-10T14:59:29;102917.66;;;7.96;47.47
64841;BME280;51307;52.162;7.560;2023-02-10T15:02:00;102918.16;;;8.02;46.36
64841;BME280;51307;52.162;7.560;2023-02-10T15:04:26;102914.78;;;8.29;45.94